createdAt,value
2022-12-16T00:01:16.187Z,94777.22
2022-12-16T00:03:48.417Z,94798.75
2022-12-16T00:06:17.104Z,94784.56
2022-12-16T00:08:45.586Z,94794.09
2022-12-16T00:11:14.140Z,94787.97
2022-12-16T00:13:42.411Z,94794.75
2022-12-16T00:16:12.274Z,94793.66
2022-12-16T00:18:42.480Z,94793.56
2022-12-16T00:21:11.258Z,94804.66
2022-12-16T00:23:41.662Z,94790.25
2022-12-16T00:26:10.237Z,94797.97
2022-12-16T00:28:38.545Z,94793.72
2022-12-16T00:31:07.568Z,94788.47
2022-12-16T00:33:36.372Z,94797.00
2022-12-16T00:36:06.791Z,94796.34
2022-12-16T00:38:35.322Z,94794.06
2022-12-16T00:41:03.673Z,94791.09
2022-12-16T00:43:32.328Z,94805.00
2022-12-16T00:46:01.028Z,94810.00
2022-12-16T00:48:29.500Z,94814.41
2022-12-16T00:50:57.717Z,94806.41
2022-12-16T00:53:27.318Z,94805.88
2022-12-16T00:56:03.064Z,94800.53
2022-12-16T00:58:31.307Z,94806.41
2022-12-16T01:00:59.587Z,94808.91
2022-12-16T01:03:28.198Z,94813.81
2022-12-16T01:05:56.652Z,94811.63
2022-12-16T01:08:25.086Z,94818.97
2022-12-16T01:10:56.097Z,94819.66
2022-12-16T01:13:25.851Z,94820.84
2022-12-16T01:15:54.142Z,94823.41
2022-12-16T01:18:22.517Z,94821.84
2022-12-16T01:20:51.399Z,94835.22
2022-12-16T01:23:20.050Z,94837.09
2022-12-16T01:25:52.235Z,94838.59
2022-12-16T01:28:21.819Z,94849.09
2022-12-16T01:30:50.077Z,94846.50
2022-12-16T01:33:18.426Z,94843.13
2022-12-16T01:35:55.841Z,94844.25
2022-12-16T01:38:24.799Z,94847.72
2022-12-16T01:40:55.228Z,94848.59
2022-12-16T01:43:27.145Z,94852.72
2022-12-16T01:45:58.088Z,94842.69
2022-12-16T01:48:34.188Z,94842.75
2022-12-16T01:51:06.221Z,94844.66
2022-12-16T01:53:35.671Z,94842.72
2022-12-16T01:56:04.768Z,94846.44
2022-12-16T01:58:36.306Z,94855.47
2022-12-16T02:01:04.762Z,94850.44
2022-12-16T02:03:36.940Z,94848.69
2022-12-16T02:06:07.719Z,94852.09
2022-12-16T02:08:36.705Z,94849.22
2022-12-16T02:11:12.186Z,94856.91
2022-12-16T02:13:58.240Z,94847.25
2022-12-16T02:16:33.238Z,94855.53
2022-12-16T02:19:09.047Z,94866.41
2022-12-16T02:21:54.940Z,94862.28
2022-12-16T02:24:38.235Z,94863.06
2022-12-16T02:27:45.395Z,94867.72
2022-12-16T02:30:29.906Z,94870.78
2022-12-16T02:33:04.044Z,94867.56
2022-12-16T02:35:36.790Z,94872.56
2022-12-16T02:38:14.893Z,94880.13
2022-12-16T02:40:46.078Z,94894.81
2022-12-16T02:43:19.821Z,94897.56
2022-12-16T02:45:50.291Z,94896.22
2022-12-16T02:48:18.665Z,94886.81
2022-12-16T02:50:48.610Z,94891.75
2022-12-16T02:53:17.040Z,94891.84
2022-12-16T02:55:54.229Z,94892.97
2022-12-16T02:58:28.729Z,94895.41
2022-12-16T03:01:05.357Z,94891.59
2022-12-16T03:03:37.635Z,94902.28
2022-12-16T03:06:06.740Z,94911.88
2022-12-16T03:08:37.921Z,94915.22
2022-12-16T03:11:08.194Z,94913.00
2022-12-16T03:13:40.581Z,94910.78
2022-12-16T03:16:12.329Z,94915.44
2022-12-16T03:18:43.354Z,94909.59
2022-12-16T03:21:12.385Z,94925.50
2022-12-16T03:23:44.487Z,94922.13
2022-12-16T03:26:16.747Z,94929.63
2022-12-16T03:28:50.546Z,94932.44
2022-12-16T03:31:29.179Z,94933.47
2022-12-16T03:34:00.514Z,94934.75
2022-12-16T03:36:30.968Z,94926.16
2022-12-16T03:39:01.508Z,94931.06
2022-12-16T03:41:29.633Z,94928.66
2022-12-16T03:43:57.844Z,94922.97
2022-12-16T03:46:27.950Z,94924.53
2022-12-16T03:48:56.317Z,94923.13
2022-12-16T03:51:24.544Z,94921.00
2022-12-16T03:53:52.783Z,94919.59
2022-12-16T03:56:21.046Z,94926.91
2022-12-16T03:58:49.300Z,94931.09
2022-12-16T04:01:17.573Z,94934.91
2022-12-16T04:03:47.247Z,94933.41
2022-12-16T04:06:18.563Z,94941.31
2022-12-16T04:08:46.895Z,94942.06
2022-12-16T04:11:32.770Z,94943.94
2022-12-16T04:14:18.625Z,94938.13
2022-12-16T04:17:04.647Z,94940.50
2022-12-16T04:19:55.313Z,94948.28
2022-12-16T04:22:43.982Z,94951.34
2022-12-16T04:25:15.372Z,94960.59
2022-12-16T04:27:47.180Z,94956.88
2022-12-16T04:30:22.298Z,94965.22
2022-12-16T04:33:11.796Z,94971.56
2022-12-16T04:35:59.086Z,94976.56
2022-12-16T04:38:44.967Z,94974.56
2022-12-16T04:41:31.085Z,94987.69
2022-12-16T04:44:17.185Z,94993.16
2022-12-16T04:47:03.137Z,95004.06
2022-12-16T04:49:49.195Z,95006.09
2022-12-16T04:52:36.958Z,95012.00
2022-12-16T04:55:23.373Z,95010.16
2022-12-16T04:58:10.958Z,95005.31
2022-12-16T05:00:56.864Z,95013.88
2022-12-16T05:03:42.797Z,95019.22
2022-12-16T05:06:28.708Z,95015.34
2022-12-16T05:09:15.884Z,95012.22
2022-12-16T05:12:01.759Z,95017.00
2022-12-16T05:14:46.978Z,95022.63
2022-12-16T05:17:32.769Z,95033.69
2022-12-16T05:20:18.796Z,95041.13
2022-12-16T05:23:05.244Z,95049.34
2022-12-16T05:25:52.402Z,95049.72
2022-12-16T05:28:38.407Z,95052.50
2022-12-16T05:31:24.372Z,95060.94
2022-12-16T05:34:10.283Z,95052.28
2022-12-16T05:36:56.416Z,95058.00
2022-12-16T05:39:42.366Z,95053.78
2022-12-16T05:42:29.657Z,95051.63
2022-12-16T05:45:15.537Z,95063.66
2022-12-16T05:48:01.372Z,95067.72
2022-12-16T05:50:47.250Z,95054.56
2022-12-16T05:53:33.622Z,95051.16
2022-12-16T05:56:19.687Z,95061.69
2022-12-16T05:59:15.193Z,95067.66
2022-12-16T06:02:01.382Z,95067.78
2022-12-16T06:04:47.536Z,95088.13
2022-12-16T06:07:33.296Z,95077.78
2022-12-16T06:10:19.178Z,95078.41
2022-12-16T06:13:05.637Z,95092.09
2022-12-16T06:15:52.576Z,95096.75
2022-12-16T06:18:38.479Z,95114.34
2022-12-16T06:21:24.358Z,95114.59
2022-12-16T06:24:10.403Z,95112.59
2022-12-16T06:26:56.547Z,95121.09
2022-12-16T06:29:41.584Z,95129.88
2022-12-16T06:32:28.643Z,95127.91
2022-12-16T06:35:14.766Z,95140.56
2022-12-16T06:38:00.615Z,95132.75
2022-12-16T06:40:46.666Z,95141.53
2022-12-16T06:43:32.892Z,95151.56
2022-12-16T06:46:19.122Z,95156.50
2022-12-16T06:49:06.559Z,95164.19
2022-12-16T06:51:52.636Z,95155.69
2022-12-16T06:54:37.691Z,95165.84
2022-12-16T06:57:23.700Z,95171.47
2022-12-16T07:00:09.813Z,95183.38
2022-12-16T07:02:55.794Z,95184.91
2022-12-16T07:05:43.386Z,95187.03
2022-12-16T07:08:29.179Z,95189.97
2022-12-16T07:11:17.053Z,95193.28
2022-12-16T07:14:03.226Z,95203.38
2022-12-16T07:17:03.674Z,95204.09
2022-12-16T07:19:49.587Z,95216.63
2022-12-16T07:22:36.805Z,95215.97
2022-12-16T07:25:23.255Z,95217.03
2022-12-16T07:28:15.126Z,95228.56
2022-12-16T07:31:02.203Z,95236.16
2022-12-16T07:33:48.270Z,95234.59
2022-12-16T07:36:34.426Z,95237.53
2022-12-16T07:39:18.013Z,95237.25
2022-12-16T07:42:03.795Z,95244.25
2022-12-16T07:44:49.848Z,95243.53
2022-12-16T07:47:35.737Z,95259.22
2022-12-16T07:50:21.645Z,95261.16
2022-12-16T07:53:13.120Z,95266.09
2022-12-16T07:56:00.426Z,95267.09
2022-12-16T07:58:46.209Z,95270.66
2022-12-16T08:01:32.249Z,95272.97
2022-12-16T08:04:18.253Z,95276.81
2022-12-16T08:07:04.156Z,95289.59
2022-12-16T08:09:50.049Z,95286.69
2022-12-16T08:12:37.444Z,95282.16
2022-12-16T08:15:24.272Z,95290.16
2022-12-16T08:18:10.779Z,95295.94
2022-12-16T08:20:57.237Z,95290.44
2022-12-16T08:23:43.047Z,95293.84
2022-12-16T08:26:29.135Z,95295.66
2022-12-16T08:29:42.625Z,95312.16
2022-12-16T08:32:22.020Z,95311.63
2022-12-16T08:35:08.018Z,95320.13
2022-12-16T08:37:54.516Z,95320.00
2022-12-16T08:40:41.268Z,95320.00
2022-12-16T08:43:27.228Z,95326.19
2022-12-16T08:46:14.512Z,95330.56
2022-12-16T08:49:05.848Z,95340.75
2022-12-16T08:51:51.581Z,95335.94
2022-12-16T08:54:37.750Z,95347.75
2022-12-16T08:57:23.706Z,95349.25
2022-12-16T09:00:09.387Z,95356.69
2022-12-16T09:02:56.777Z,95356.16
2022-12-16T09:05:42.890Z,95356.41
2022-12-16T09:08:28.766Z,95358.06
2022-12-16T09:11:18.917Z,95357.22
2022-12-16T09:14:05.339Z,95359.13
2022-12-16T09:16:51.409Z,95363.75
2022-12-16T09:19:38.823Z,95371.94
2022-12-16T09:22:24.799Z,95374.25
2022-12-16T09:25:13.111Z,95383.72
2022-12-16T09:27:59.398Z,95387.69
2022-12-16T09:30:45.385Z,95386.03
2022-12-16T09:33:27.556Z,95394.09
2022-12-16T09:36:15.246Z,95398.03
2022-12-16T09:39:01.002Z,95409.34
2022-12-16T09:42:00.316Z,95405.16
2022-12-16T09:44:53.327Z,95417.47
2022-12-16T09:47:47.406Z,95422.72
2022-12-16T09:50:38.912Z,95423.50
2022-12-16T09:53:30.235Z,95424.78
2022-12-16T09:56:16.933Z,95426.97
2022-12-16T09:59:06.417Z,95426.56
2022-12-16T10:01:55.001Z,95418.38
2022-12-16T10:04:43.708Z,95430.38
2022-12-16T10:07:35.084Z,95431.88
2022-12-16T10:10:35.458Z,95441.13
2022-12-16T10:13:28.487Z,95442.91
2022-12-16T10:16:20.649Z,95443.72
2022-12-16T10:19:13.941Z,95451.66
2022-12-16T10:22:05.103Z,95455.78
2022-12-16T10:25:00.238Z,95456.34
2022-12-16T10:27:52.897Z,95455.59
2022-12-16T10:30:39.311Z,95451.16
2022-12-16T10:33:28.018Z,95453.53
2022-12-16T10:36:14.580Z,95460.81
2022-12-16T10:39:03.083Z,95457.13
2022-12-16T10:41:52.013Z,95456.53
2022-12-16T10:44:42.977Z,95456.13
2022-12-16T10:47:29.776Z,95460.25
2022-12-16T10:50:16.000Z,95468.41
2022-12-16T10:53:14.216Z,95465.25
2022-12-16T10:56:13.067Z,95469.25
2022-12-16T10:59:05.691Z,95465.88
2022-12-16T11:01:53.332Z,95478.66
2022-12-16T11:04:48.182Z,95478.28
2022-12-16T11:07:58.742Z,95473.06
2022-12-16T11:10:51.240Z,95476.91
2022-12-16T11:13:40.066Z,95477.72
2022-12-16T11:16:29.517Z,95486.63
2022-12-16T11:19:16.948Z,95489.00
2022-12-16T11:22:03.425Z,95472.53
2022-12-16T11:24:49.854Z,95474.97
2022-12-16T11:27:41.979Z,95490.25
2022-12-16T11:30:40.184Z,95486.66
2022-12-16T11:33:36.005Z,95487.59
2022-12-16T11:36:31.171Z,95482.16
2022-12-16T11:39:17.506Z,95488.47
2022-12-16T11:42:05.983Z,95487.66
2022-12-16T11:44:55.549Z,95486.69
2022-12-16T11:47:48.481Z,95492.53
2022-12-16T11:50:39.233Z,95500.38
2022-12-16T11:53:57.154Z,95494.06
2022-12-16T11:56:45.637Z,95489.78
2022-12-16T11:59:40.243Z,95488.88
2022-12-16T12:02:30.656Z,95494.06
2022-12-16T12:05:16.555Z,95494.78
2022-12-16T12:08:06.899Z,95498.06
2022-12-16T12:11:08.197Z,95515.16
2022-12-16T12:14:05.073Z,95509.53
2022-12-16T12:16:58.346Z,95510.38
2022-12-16T12:20:07.422Z,95521.31
2022-12-16T12:22:54.980Z,95520.66
2022-12-16T12:25:47.008Z,95523.09
2022-12-16T12:28:42.691Z,95532.97
2022-12-16T12:31:39.384Z,95528.00
2022-12-16T12:34:31.766Z,95519.16
2022-12-16T12:37:24.123Z,95523.34
2022-12-16T12:40:14.408Z,95526.28
2022-12-16T12:43:04.337Z,95529.50
2022-12-16T12:46:14.159Z,95530.50
2022-12-16T12:49:05.093Z,95536.06
2022-12-16T12:51:56.433Z,95538.34
2022-12-16T12:54:50.332Z,95538.69
2022-12-16T12:57:39.748Z,95531.53
2022-12-16T13:00:33.984Z,95536.59
2022-12-16T13:03:24.618Z,95534.69
2022-12-16T13:06:10.268Z,95542.28
2022-12-16T13:09:12.444Z,95549.94
2022-12-16T13:12:06.153Z,95553.75
2022-12-16T13:15:12.661Z,95554.16
2022-12-16T13:18:39.714Z,95553.41
2022-12-16T13:21:59.437Z,95555.94
2022-12-16T13:25:01.574Z,95561.78
2022-12-16T13:27:48.678Z,95572.09
2022-12-16T13:30:43.060Z,95573.28
2022-12-16T13:33:45.412Z,95579.97
2022-12-16T13:36:33.467Z,95594.75
2022-12-16T13:39:36.464Z,95592.56
2022-12-16T13:42:22.871Z,95605.13
2022-12-16T13:45:34.498Z,95609.13
2022-12-16T13:48:23.073Z,95612.25
2022-12-16T13:51:18.646Z,95621.78
2022-12-16T13:54:08.633Z,95627.88
2022-12-16T13:56:58.694Z,95630.56
2022-12-16T13:59:47.867Z,95632.16
2022-12-16T14:02:42.933Z,95631.50
2022-12-16T14:05:39.542Z,95648.63
2022-12-16T14:08:31.430Z,95653.34
2022-12-16T14:11:20.221Z,95653.94
2022-12-16T14:14:11.495Z,95669.19
2022-12-16T14:17:05.573Z,95681.13
2022-12-16T14:19:57.006Z,95668.34
2022-12-16T14:22:50.070Z,95675.56
2022-12-16T14:25:54.334Z,95677.00
2022-12-16T14:28:46.336Z,95680.47
2022-12-16T14:31:34.939Z,95687.47
2022-12-16T14:34:22.690Z,95687.81
2022-12-16T14:37:08.666Z,95696.94
2022-12-16T14:39:57.489Z,95710.31
2022-12-16T14:42:46.857Z,95703.56
2022-12-16T14:45:45.921Z,95708.19
2022-12-16T14:48:47.638Z,95717.91
2022-12-16T14:51:46.769Z,95717.91
2022-12-16T14:54:41.935Z,95721.56
2022-12-16T14:57:32.938Z,95726.94
2022-12-16T15:00:28.837Z,95734.28
2022-12-16T15:03:16.108Z,95736.38
2022-12-16T15:06:02.138Z,95740.78
2022-12-16T15:08:50.168Z,95743.00
2022-12-16T15:11:38.753Z,95741.81
2022-12-16T15:14:25.077Z,95743.00
2022-12-16T15:17:12.361Z,95747.66
2022-12-16T15:20:03.796Z,95750.38
2022-12-16T15:22:50.117Z,95756.53
2022-12-16T15:25:38.008Z,95759.88
2022-12-16T15:28:23.887Z,95751.06
2022-12-16T15:31:09.969Z,95761.03
2022-12-16T15:33:58.246Z,95766.94
2022-12-16T15:36:46.634Z,95775.25
2022-12-16T15:39:40.827Z,95770.97
2022-12-16T15:42:38.066Z,95778.56
2022-12-16T15:45:25.112Z,95794.06
2022-12-16T15:48:10.938Z,95795.03
2022-12-16T15:50:58.288Z,95798.94
2022-12-16T15:53:49.018Z,95793.03
2022-12-16T15:56:38.901Z,95802.38
2022-12-16T15:59:41.468Z,95804.97
2022-12-16T16:02:34.481Z,95815.72
2022-12-16T16:05:20.559Z,95821.91
2022-12-16T16:08:13.132Z,95821.31
2022-12-16T16:11:00.799Z,95831.22
2022-12-16T16:13:46.786Z,95823.56
2022-12-16T16:16:32.617Z,95825.34
2022-12-16T16:19:19.293Z,95824.38
2022-12-16T16:22:05.022Z,95826.75
2022-12-16T16:24:52.330Z,95827.22
2022-12-16T16:27:38.661Z,95843.94
2022-12-16T16:30:25.563Z,95842.00
2022-12-16T16:33:11.530Z,95840.09
2022-12-16T16:35:57.496Z,95844.91
2022-12-16T16:38:43.211Z,95850.41
2022-12-16T16:41:32.753Z,95848.31
2022-12-16T16:44:19.942Z,95852.88
2022-12-16T16:47:02.526Z,95864.25
2022-12-16T16:49:49.966Z,95862.84
2022-12-16T16:52:37.910Z,95867.78
2022-12-16T16:55:24.189Z,95872.09
2022-12-16T16:58:11.557Z,95866.94
2022-12-16T17:01:02.813Z,95880.34
2022-12-16T17:03:48.962Z,95882.72
2022-12-16T17:06:34.972Z,95882.13
2022-12-16T17:09:39.627Z,95886.56
2022-12-16T17:12:46.560Z,95884.13
2022-12-16T17:15:39.096Z,95884.50
2022-12-16T17:18:25.621Z,95895.03
2022-12-16T17:21:12.029Z,95894.28
2022-12-16T17:23:57.893Z,95906.19
2022-12-16T17:26:43.877Z,95910.59
2022-12-16T17:29:36.781Z,95918.97
2022-12-16T17:32:24.335Z,95923.38
2022-12-16T17:35:10.291Z,95929.59
2022-12-16T17:37:56.258Z,95936.19
2022-12-16T17:40:42.167Z,95939.19
2022-12-16T17:43:28.263Z,95946.31
2022-12-16T17:46:15.286Z,95940.81
2022-12-16T17:49:02.305Z,95945.69
2022-12-16T17:51:48.150Z,95952.38
2022-12-16T17:54:34.087Z,95955.63
2022-12-16T17:57:19.842Z,95955.16
2022-12-16T18:00:05.739Z,95955.00
2022-12-16T18:02:47.987Z,95956.75
2022-12-16T18:05:42.403Z,95963.03
2022-12-16T18:08:29.902Z,95961.16
2022-12-16T18:11:18.099Z,95964.03
2022-12-16T18:14:03.830Z,95977.88
2022-12-16T18:16:49.742Z,95970.28
2022-12-16T18:19:35.823Z,95975.63
2022-12-16T18:22:37.531Z,95979.44
2022-12-16T18:25:23.979Z,95980.50
2022-12-16T18:28:09.818Z,95986.28
2022-12-16T18:31:10.268Z,95994.38
2022-12-16T18:33:55.986Z,96000.16
2022-12-16T18:36:41.912Z,96004.97
2022-12-16T18:39:29.127Z,96009.22
2022-12-16T18:42:15.072Z,96013.31
2022-12-16T18:45:01.434Z,96016.28
2022-12-16T18:47:47.623Z,96016.28
2022-12-16T18:50:37.778Z,96017.75
2022-12-16T18:53:24.202Z,96020.94
2022-12-16T18:56:19.630Z,96029.44
2022-12-16T18:59:10.833Z,96035.66
2022-12-16T19:01:56.903Z,96040.56
2022-12-16T19:04:42.727Z,96040.25
2022-12-16T19:07:31.780Z,96039.38
2022-12-16T19:10:19.649Z,96048.78
2022-12-16T19:13:06.896Z,96047.56
2022-12-16T19:15:52.880Z,96050.09
2022-12-16T19:18:38.782Z,96043.06
2022-12-16T19:21:24.668Z,96053.00
2022-12-16T19:24:10.772Z,96061.00
2022-12-16T19:26:56.846Z,96062.94
2022-12-16T19:29:43.905Z,96064.03
2022-12-16T19:32:30.053Z,96067.44
2022-12-16T19:35:16.073Z,96068.69
2022-12-16T19:38:01.780Z,96071.97
2022-12-16T19:40:47.411Z,96071.81
2022-12-16T19:43:34.520Z,96078.00
2022-12-16T19:46:23.937Z,96087.69
2022-12-16T19:49:10.147Z,96084.56
2022-12-16T19:55:03.956Z,96084.94
2022-12-16T19:57:49.905Z,96095.50
2022-12-16T20:00:35.597Z,96099.38
2022-12-16T20:03:22.852Z,96099.72
2022-12-16T20:06:20.039Z,96102.22
2022-12-16T20:09:08.492Z,96104.47
2022-12-16T20:11:55.521Z,96102.03
2022-12-16T20:14:41.989Z,96109.41
2022-12-16T20:17:28.206Z,96115.59
2022-12-16T20:20:15.441Z,96122.63
2022-12-16T20:23:01.370Z,96129.19
2022-12-16T20:25:47.220Z,96144.78
2022-12-16T20:28:33.149Z,96155.09
2022-12-16T20:31:19.647Z,96158.66
2022-12-16T20:34:05.670Z,96157.53
2022-12-16T20:36:55.151Z,96158.94
2022-12-16T20:39:42.126Z,96169.38
2022-12-16T20:42:27.927Z,96159.91
2022-12-16T20:45:13.882Z,96167.19
2022-12-16T20:47:59.822Z,96173.22
2022-12-16T20:50:45.703Z,96181.69
2022-12-16T20:53:32.940Z,96184.91
2022-12-16T20:56:19.529Z,96182.00
2022-12-16T20:59:05.482Z,96196.69
2022-12-16T21:02:21.214Z,96196.88
2022-12-16T21:04:57.277Z,96201.69
2022-12-16T21:07:45.388Z,96203.13
2022-12-16T21:10:32.528Z,96203.56
2022-12-16T21:13:24.662Z,96210.53
2022-12-16T21:16:10.570Z,96220.75
2022-12-16T21:18:56.466Z,96218.44
2022-12-16T21:21:42.560Z,96224.81
2022-12-16T21:24:28.588Z,96228.31
2022-12-16T21:27:15.708Z,96230.19
2022-12-16T21:30:01.630Z,96234.50
2022-12-16T21:32:47.575Z,96231.13
2022-12-16T21:35:33.529Z,96239.78
2022-12-16T21:38:19.479Z,96238.13
2022-12-16T21:41:10.088Z,96243.75
2022-12-16T21:43:56.698Z,96242.31
2022-12-16T21:46:42.460Z,96253.25
2022-12-16T21:49:28.455Z,96262.31
2022-12-16T21:52:14.205Z,96272.81
2022-12-16T21:55:00.206Z,96274.19
2022-12-16T21:57:46.026Z,96273.88
2022-12-16T22:00:34.081Z,96286.44
2022-12-16T22:03:20.035Z,96281.00
2022-12-16T22:06:05.971Z,96279.50
2022-12-16T22:08:52.063Z,96286.91
2022-12-16T22:11:37.928Z,96281.84
2022-12-16T22:14:23.688Z,96292.22
2022-12-16T22:17:10.984Z,96306.16
2022-12-16T22:19:57.012Z,96297.88
2022-12-16T22:22:42.909Z,96302.75
2022-12-16T22:25:28.861Z,96309.56
2022-12-16T22:28:14.769Z,96322.34
2022-12-16T22:31:00.773Z,96321.97
2022-12-16T22:33:48.644Z,96335.22
2022-12-16T22:36:20.396Z,96089.56
2022-12-16T22:36:34.663Z,96322.94
2022-12-16T22:39:20.424Z,96329.88
2022-12-16T22:42:06.266Z,96335.75
2022-12-16T22:44:52.013Z,96332.91
2022-12-16T22:47:38.029Z,96331.38
2022-12-16T22:50:26.460Z,96340.78
2022-12-16T22:53:12.345Z,96339.88
2022-12-16T22:56:01.916Z,96341.66
2022-12-16T22:58:48.081Z,96343.97
2022-12-16T23:01:34.097Z,96349.63
2022-12-16T23:04:20.184Z,96343.25
2022-12-16T23:07:07.468Z,96349.69
2022-12-16T23:09:53.510Z,96355.47
2022-12-16T23:12:39.940Z,96354.41
2022-12-16T23:15:28.469Z,96349.53
2022-12-16T23:18:14.514Z,96353.75
2022-12-16T23:21:04.025Z,96362.03
2022-12-16T23:23:51.342Z,96365.53
2022-12-16T23:26:38.627Z,96372.06
2022-12-16T23:29:24.577Z,96377.44
2022-12-16T23:32:10.514Z,96375.72
2022-12-16T23:34:59.029Z,96376.53
2022-12-16T23:37:45.030Z,96383.31
2022-12-16T23:40:32.184Z,96381.59
2022-12-16T23:43:18.030Z,96387.94
2022-12-16T23:46:03.983Z,96386.34
2022-12-16T23:48:49.966Z,96389.81
2022-12-16T23:51:35.950Z,96394.75
2022-12-16T23:54:21.680Z,96388.84
2022-12-16T23:57:08.901Z,96392.34
2022-12-16T23:59:55.678Z,96388.06
